Time;durP1;ratioP1;P1;durP2;ratioP2;P2;SDS_P1;SDS_P2;PMS_P1;PMS_P2;Temp;Humidity;BMP_temperature;BMP_pressure;BME280_temperature;BME280_humidity;BME280_pressure;Samples;Min_cycle;Max_cycle;Signal;HPM_P1;HPM_P2
2023/03/31 00:01:04;;;;;;;1.35;0.45;;;;;;;14.04;97.42;99539.25;4966931;28;20409;-49
2023/03/31 00:03:32;;;;;;;1.02;0.40;;;;;;;14.08;97.15;99543.44;4967136;28;20035;-52
2023/03/31 00:05:59;;;;;;;0.32;0.20;;;;;;;14.05;96.31;99541.53;4967110;28;20046;-51
2023/03/31 00:08:28;;;;;;;0.50;0.30;;;;;;;14.09;96.42;99544.97;4970137;28;20077;-48
2023/03/31 00:11:01;;;;;;;0.60;0.45;;;;;;;13.97;97.56;99537.41;4967190;28;20038;-49
2023/03/31 00:13:27;;;;;;;1.73;0.57;;;;;;;13.97;97.15;99547.47;4969187;28;20478;-49
2023/03/31 00:16:01;;;;;;;0.10;0.10;;;;;;;13.78;98.26;99537.97;4970054;28;20108;-51
2023/03/31 00:18:28;;;;;;;4.47;0.65;;;;;;;13.73;98.77;99533.03;4965617;28;20032;-48
2023/03/31 00:20:58;;;;;;;0.47;0.47;;;;;;;13.84;97.27;99527.50;4984010;28;20031;-51
2023/03/31 00:23:26;;;;;;;1.13;0.47;;;;;;;13.80;97.74;99538.34;4965164;28;20085;-48
2023/03/31 00:25:54;;;;;;;0.32;0.32;;;;;;;13.86;97.43;99528.63;4968762;28;20034;-49
2023/03/31 00:28:20;;;;;;;2.47;0.50;;;;;;;13.93;97.15;99533.19;4968686;28;20046;-49
2023/03/31 00:30:46;;;;;;;0.55;0.45;;;;;;;13.80;97.86;99519.41;4964025;28;20033;-50
2023/03/31 00:33:12;;;;;;;0.63;0.45;;;;;;;13.84;97.25;99514.72;4967769;28;20073;-49
2023/03/31 00:35:38;;;;;;;0.17;0.17;;;;;;;13.47;99.07;99512.81;4968137;28;20053;-51
2023/03/31 00:38:04;;;;;;;1.35;0.32;;;;;;;13.67;99.21;99523.81;4969031;28;20457;-49
2023/03/31 00:40:30;;;;;;;0.32;0.13;;;;;;;13.71;98.14;99512.94;4961885;28;20035;-49
2023/03/31 00:42:56;;;;;;;1.55;0.40;;;;;;;13.83;97.62;99510.50;4990428;28;20027;-48
2023/03/31 00:45:30;;;;;;;0.85;0.73;;;;;;;13.79;97.84;99506.28;4971977;28;20042;-50
2023/03/31 00:48:10;;;;;;;0.43;0.40;;;;;;;13.76;97.39;99509.81;4972341;28;20043;-50
2023/03/31 00:50:55;;;;;;;0.35;0.22;;;;;;;13.73;97.15;99500.56;4971616;28;20078;-49
2023/03/31 00:53:24;;;;;;;0.22;0.22;;;;;;;13.82;96.42;99500.81;4969224;28;20041;-51
2023/03/31 00:55:53;;;;;;;0.77;0.77;;;;;;;13.71;97.43;99489.38;4972623;28;20044;-49
2023/03/31 00:58:21;;;;;;;4.85;1.48;;;;;;;13.72;96.77;99501.75;4972101;28;20027;-48
2023/03/31 01:00:49;;;;;;;0.43;0.43;;;;;;;13.78;96.05;99491.97;4984808;28;20038;-51
2023/03/31 01:03:15;;;;;;;0.03;0.03;;;;;;;13.70;96.12;99492.47;4972366;28;20437;-49
2023/03/31 01:05:50;;;;;;;0.93;0.17;;;;;;;13.70;97.00;99473.53;4965184;28;20035;-50
2023/03/31 01:08:23;;;;;;;0.20;0.20;;;;;;;13.77;95.62;99476.94;4970722;28;20022;-49
2023/03/31 01:10:52;;;;;;;0.55;0.50;;;;;;;13.82;94.94;99481.13;4973209;28;20442;-51
2023/03/31 01:13:20;;;;;;;2.67;0.30;;;;;;;13.80;95.27;99475.38;4973347;28;20062;-52
2023/03/31 01:15:45;;;;;;;0.63;0.63;;;;;;;13.72;95.34;99463.09;4970078;28;20045;-51
2023/03/31 01:18:14;;;;;;;0.43;0.38;;;;;;;13.59;96.56;99460.13;4982108;28;20035;-49
2023/03/31 01:21:08;;;;;;;0.17;0.17;;;;;;;13.65;95.85;99463.16;4971899;28;20039;-51
2023/03/31 01:23:59;;;;;;;2.67;0.70;;;;;;;13.85;94.96;99458.66;4971553;28;20072;-52
2023/03/31 01:26:50;;;;;;;4.53;0.30;;;;;;;13.72;94.94;99460.38;4969480;28;20033;-50
2023/03/31 01:29:28;;;;;;;0.20;0.20;;;;;;;13.84;94.75;99449.78;4970152;28;20042;-50
2023/03/31 01:32:21;;;;;;;0.08;0.08;;;;;;;13.63;95.26;99452.72;4973828;28;20031;-52
2023/03/31 01:35:26;;;;;;;0.20;0.20;;;;;;;13.74;94.50;99453.41;4959621;28;20142;-49
2023/03/31 01:38:33;;;;;;;0.52;0.35;;;;;;;13.77;94.29;99447.16;4988792;28;20058;-55
2023/03/31 01:41:23;;;;;;;0.35;0.22;;;;;;;13.71;94.32;99443.38;4966137;28;20051;-52
2023/03/31 01:43:51;;;;;;;0.32;0.32;;;;;;;13.64;94.60;99439.97;4971880;28;20046;-50
2023/03/31 01:46:34;;;;;;;3.20;0.30;;;;;;;13.61;94.68;99436.13;4985050;28;20035;-46
2023/03/31 01:49:05;;;;;;;;;;;;;;;13.56;93.90;99442.00;4972082;28;20125;-47
2023/03/31 01:51:36;;;;;;;0.22;0.22;;;;;;;13.62;94.08;99432.28;4970463;28;19918;-49
2023/03/31 01:54:18;;;;;;;2.42;0.57;;;;;;;13.47;93.93;99426.25;4968636;28;20051;-47
2023/03/31 01:56:55;;;;;;;0.93;0.45;;;;;;;13.43;95.12;99435.59;4960578;28;20039;-50
2023/03/31 01:59:33;;;;;;;0.88;0.30;;;;;;;13.32;95.23;99432.22;4969383;28;20429;-46
2023/03/31 02:02:04;;;;;;;3.03;0.47;;;;;;;13.47;94.60;99434.38;4971640;28;20034;-51
2023/03/31 02:04:38;;;;;;;0.70;0.55;;;;;;;13.48;93.31;99424.31;4971135;28;20039;-51
2023/03/31 02:07:17;;;;;;;0.93;0.30;;;;;;;13.44;94.42;99418.19;4976826;28;20109;-54
2023/03/31 02:09:48;;;;;;;1.15;0.57;;;;;;;13.46;94.45;99421.25;4968725;28;20035;-46
2023/03/31 02:12:17;;;;;;;0.40;0.40;;;;;;;13.50;94.56;99425.47;4971213;28;20489;-51
2023/03/31 02:14:46;;;;;;;1.42;0.95;;;;;;;13.54;94.02;99415.38;4963219;28;20460;-45
2023/03/31 02:17:19;;;;;;;0.20;0.20;;;;;;;13.44;94.84;99410.06;4967692;28;20035;-48
2023/03/31 02:19:48;;;;;;;1.98;0.60;;;;;;;13.33;96.21;99407.50;4971140;28;20409;-45
2023/03/31 02:22:18;;;;;;;2.03;0.98;;;;;;;13.34;95.44;99394.72;4968347;28;20022;-45
2023/03/31 02:24:46;;;;;;;;;;;;;;;13.43;94.72;99397.72;4971861;28;20433;-45
2023/03/31 02:27:21;;;;;;;1.58;0.80;;;;;;;13.39;95.71;99391.59;4966622;28;19966;-46
2023/03/31 02:29:48;;;;;;;0.50;0.50;;;;;;;13.45;95.44;99390.72;4960237;28;20057;-51
2023/03/31 02:32:21;;;;;;;0.77;0.47;;;;;;;13.47;95.21;99379.53;4968072;28;20035;-45
2023/03/31 02:34:47;;;;;;;2.55;0.73;;;;;;;13.43;94.96;99384.22;4969801;28;20085;-46
2023/03/31 02:37:13;;;;;;;0.40;0.40;;;;;;;13.34;96.09;99381.97;4965118;28;20035;-47
2023/03/31 02:39:46;;;;;;;2.20;0.93;;;;;;;13.35;96.00;99377.34;4956557;28;20405;-45
2023/03/31 02:42:12;;;;;;;1.02;0.73;;;;;;;13.39;95.44;99389.63;4958934;28;20038;-45
2023/03/31 02:44:38;;;;;;;0.65;0.50;;;;;;;13.45;95.74;99381.88;4966198;28;20121;-45
2023/03/31 02:47:08;;;;;;;0.45;0.45;;;;;;;13.55;94.67;99376.31;4966280;28;20463;-51
2023/03/31 02:49:37;;;;;;;2.30;0.40;;;;;;;13.45;95.47;99377.22;4977433;28;20030;-50
2023/03/31 02:52:21;;;;;;;2.38;0.70;;;;;;;13.31;95.97;99365.81;4963610;28;20051;-45
2023/03/31 02:55:14;;;;;;;0.98;0.45;;;;;;;13.25;95.64;99351.19;4983823;28;20375;-52
2023/03/31 02:58:28;;;;;;;1.15;0.68;;;;;;;13.32;95.71;99359.22;4968442;28;20090;-46
2023/03/31 03:01:10;;;;;;;0.35;0.35;;;;;;;13.17;95.55;99344.34;4949664;28;20045;-45
2023/03/31 03:03:39;;;;;;;1.00;0.50;;;;;;;13.25;95.08;99348.50;4984761;28;20030;-51
2023/03/31 03:06:17;;;;;;;0.43;0.40;;;;;;;13.17;94.59;99355.16;4979950;28;20035;-47
2023/03/31 03:09:21;;;;;;;0.47;0.28;;;;;;;13.06;95.55;99343.69;4984885;28;20493;-45
2023/03/31 03:11:50;;;;;;;0.75;0.57;;;;;;;13.02;95.01;99349.13;4967165;28;20038;-45
2023/03/31 03:14:21;;;;;;;1.65;0.40;;;;;;;12.92;95.90;99343.81;4964521;28;20023;-54
2023/03/31 03:16:55;;;;;;;0.52;0.50;;;;;;;12.82;96.56;99339.28;4967458;28;20037;-45
2023/03/31 03:19:22;;;;;;;0.63;0.60;;;;;;;12.88;96.85;99338.44;4970619;28;20070;-49
2023/03/31 03:21:48;;;;;;;0.63;0.40;;;;;;;12.94;96.15;99336.84;4969315;28;20026;-45
2023/03/31 03:24:17;;;;;;;0.80;0.68;;;;;;;12.92;95.57;99333.00;4964516;28;20484;-46
2023/03/31 03:26:46;;;;;;;0.50;0.40;;;;;;;12.93;96.17;99335.31;4966535;28;20034;-46
2023/03/31 03:29:13;;;;;;;0.38;0.38;;;;;;;12.79;96.53;99326.59;4969468;28;20034;-45
2023/03/31 03:31:40;;;;;;;1.42;0.82;;;;;;;12.78;97.22;99317.72;4970442;28;20023;-51
2023/03/31 03:34:05;;;;;;;1.60;0.80;;;;;;;12.67;97.21;99325.16;4964459;28;20449;-47
2023/03/31 03:36:32;;;;;;;2.55;0.60;;;;;;;12.55;99.07;99325.66;4970129;28;20038;-51
2023/03/31 03:38:58;;;;;;;0.73;0.52;;;;;;;12.54;98.57;99321.44;4970192;28;20041;-46
2023/03/31 03:41:23;;;;;;;0.63;0.60;;;;;;;12.73;97.33;99314.69;4969530;28;20509;-48
2023/03/31 03:43:49;;;;;;;0.73;0.50;;;;;;;12.66;98.21;99310.88;4965578;28;20540;-48
2023/03/31 03:46:14;;;;;;;1.85;0.90;;;;;;;12.67;98.50;99320.53;4962711;28;20015;-48
2023/03/31 03:48:40;;;;;;;1.10;0.70;;;;;;;12.75;98.18;99315.81;4969237;28;20030;-52
2023/03/31 03:51:06;;;;;;;1.83;0.98;;;;;;;12.89;97.99;99309.50;4969421;28;20481;-48
2023/03/31 03:53:31;;;;;;;1.02;0.95;;;;;;;12.88;97.31;99316.84;4964743;28;20067;-52
2023/03/31 03:55:58;;;;;;;5.13;0.60;;;;;;;12.90;97.45;99313.72;4964379;28;20031;-47
2023/03/31 03:58:24;;;;;;;0.60;0.55;;;;;;;12.93;97.34;99302.88;4963692;28;20051;-45
2023/03/31 04:00:49;;;;;;;0.70;0.35;;;;;;;12.97;97.06;99308.25;4969416;28;20097;-44
2023/03/31 04:03:15;;;;;;;1.80;0.80;;;;;;;12.94;97.43;99298.25;4961895;28;20478;-45
2023/03/31 04:05:41;;;;;;;0.90;0.50;;;;;;;12.91;98.15;99291.69;4961429;28;20122;-50
2023/03/31 04:08:07;;;;;;;0.82;0.70;;;;;;;12.92;97.72;99292.47;4962246;28;20039;-48
2023/03/31 04:10:34;;;;;;;1.33;0.93;;;;;;;12.78;98.42;99289.91;4955165;28;20042;-45
2023/03/31 04:12:59;;;;;;;1.92;0.65;;;;;;;12.84;98.36;99293.72;4953667;28;20113;-51
2023/03/31 04:15:25;;;;;;;0.80;0.35;;;;;;;12.83;98.76;99284.09;4958201;28;20550;-45
2023/03/31 04:17:53;;;;;;;0.95;0.75;;;;;;;12.99;98.21;99273.50;4965687;28;20098;-51
2023/03/31 04:20:19;;;;;;;1.85;1.13;;;;;;;12.95;97.81;99283.56;4960784;28;20085;-53
2023/03/31 04:22:46;;;;;;;1.65;0.77;;;;;;;12.83;98.05;99271.34;4958230;28;20039;-49
2023/03/31 04:25:15;;;;;;;0.43;0.43;;;;;;;12.81;98.21;99262.13;4978081;28;20046;-45
2023/03/31 04:27:59;;;;;;;1.02;0.95;;;;;;;12.97;97.84;99259.63;4958707;28;20039;-52
2023/03/31 04:30:29;;;;;;;1.83;0.80;;;;;;;12.91;98.22;99253.13;4966306;28;20094;-45
2023/03/31 04:33:01;;;;;;;0.73;0.60;;;;;;;12.92;97.94;99251.94;4972222;28;20109;-51
2023/03/31 04:35:51;;;;;;;0.98;0.52;;;;;;;12.90;98.43;99260.47;4969562;28;20034;-45
2023/03/31 04:38:22;;;;;;;1.10;0.60;;;;;;;12.90;98.96;99251.56;4968796;28;20046;-45
2023/03/31 04:40:49;;;;;;;1.02;0.63;;;;;;;12.86;98.50;99243.53;4968494;28;20545;-55
2023/03/31 04:43:16;;;;;;;2.80;0.65;;;;;;;12.89;99.16;99242.69;4973092;28;20038;-47
2023/03/31 04:45:42;;;;;;;1.42;0.50;;;;;;;12.99;98.42;99227.56;4969053;28;20044;-49
2023/03/31 04:48:08;;;;;;;3.72;0.75;;;;;;;12.95;98.24;99229.53;4954473;28;20030;-51
2023/03/31 04:50:34;;;;;;;0.63;0.57;;;;;;;12.94;97.76;99219.88;4963520;28;20065;-50
2023/03/31 04:53:00;;;;;;;2.22;0.90;;;;;;;12.93;98.79;99216.41;4963704;28;20486;-54
2023/03/31 04:55:26;;;;;;;1.55;0.80;;;;;;;12.90;99.00;99221.84;4963285;28;20046;-49
2023/03/31 04:57:52;;;;;;;1.27;1.00;;;;;;;13.02;97.80;99213.22;4961722;28;20404;-50
2023/03/31 05:00:18;;;;;;;1.13;0.80;;;;;;;13.07;97.30;99210.06;4968813;28;20174;-58
2023/03/31 05:02:44;;;;;;;2.00;0.80;;;;;;;13.00;97.49;99197.41;4970686;28;20027;-51
2023/03/31 05:05:10;;;;;;;0.85;0.52;;;;;;;12.95;99.06;99195.16;4959404;28;20517;-45
2023/03/31 05:07:35;;;;;;;0.55;0.55;;;;;;;13.00;99.07;99202.03;4956913;28;20027;-49
2023/03/31 05:10:01;;;;;;;0.55;0.45;;;;;;;12.93;99.05;99194.78;4954199;28;20497;-48
2023/03/31 05:12:26;;;;;;;0.65;0.55;;;;;;;12.98;99.35;99196.28;4953524;28;20030;-56
2023/03/31 05:14:52;;;;;;;0.93;0.63;;;;;;;12.98;99.52;99194.34;4953164;28;20049;-52
2023/03/31 05:17:17;;;;;;;0.68;0.65;;;;;;;13.08;98.92;99195.41;4958789;28;20114;-45
2023/03/31 05:19:43;;;;;;;0.82;0.50;;;;;;;13.16;98.19;99194.13;4960376;28;20027;-54
2023/03/31 05:22:09;;;;;;;1.48;0.88;;;;;;;13.09;98.78;99184.19;4946988;28;20042;-45
2023/03/31 05:24:34;;;;;;;3.05;0.90;;;;;;;13.12;99.27;99179.91;4960761;28;20050;-45
2023/03/31 05:27:00;;;;;;;1.58;0.63;;;;;;;13.10;98.90;99182.25;4961881;28;20038;-47
2023/03/31 05:29:26;;;;;;;2.53;0.63;;;;;;;13.20;98.02;99178.63;4959470;28;20027;-49
2023/03/31 05:31:52;;;;;;;1.52;0.93;;;;;;;13.15;98.69;99173.66;4966528;28;20042;-52
2023/03/31 05:34:19;;;;;;;1.25;1.15;;;;;;;13.16;98.19;99161.69;4951151;28;20043;-58
2023/03/31 05:36:46;;;;;;;1.00;0.68;;;;;;;13.07;98.58;99158.72;4957400;28;20682;-54
2023/03/31 05:39:12;;;;;;;0.98;0.40;;;;;;;13.09;99.39;99150.97;4966736;28;20141;-51
2023/03/31 05:41:38;;;;;;;0.57;0.32;;;;;;;13.04;99.48;99157.63;4963682;28;20046;-54
2023/03/31 05:44:05;;;;;;;3.53;1.20;;;;;;;13.21;98.05;99156.59;4951545;28;20835;-54
2023/03/31 05:46:30;;;;;;;1.05;0.60;;;;;;;13.16;98.71;99151.63;4961413;28;20469;-54
2023/03/31 05:48:57;;;;;;;1.33;0.47;;;;;;;13.19;98.06;99148.13;4978348;28;20033;-53
2023/03/31 05:51:43;;;;;;;0.68;0.52;;;;;;;13.19;98.80;99152.75;4957285;28;20066;-49
2023/03/31 05:54:09;;;;;;;0.85;0.50;;;;;;;13.21;99.14;99153.91;4923485;29;20534;-47
2023/03/31 05:56:34;;;;;;;1.17;0.90;;;;;;;13.20;98.93;99149.66;4917236;29;20051;-54
2023/03/31 05:59:00;;;;;;;1.65;0.55;;;;;;;13.28;98.39;99145.66;4923802;29;20067;-55
2023/03/31 06:01:26;;;;;;;5.70;0.95;;;;;;;13.35;98.45;99142.09;4928957;29;20036;-45
2023/03/31 06:03:52;;;;;;;1.08;0.68;;;;;;;13.15;99.02;99142.00;4928962;29;20028;-52
2023/03/31 06:06:38;;;;;;;0.60;0.50;;;;;;;13.21;98.23;99137.69;4927451;29;20538;-59
2023/03/31 06:09:04;;;;;;;6.10;0.73;;;;;;;13.32;98.02;99137.50;4885369;29;20764;-45
2023/03/31 06:11:30;;;;;;;1.00;0.70;;;;;;;13.29;98.52;99130.22;4888074;29;20048;-50
2023/03/31 06:13:56;;;;;;;1.92;0.95;;;;;;;13.06;98.85;99122.84;4889184;29;20043;-48
2023/03/31 06:16:22;;;;;;;3.80;1.05;;;;;;;13.18;98.32;99132.31;4891277;29;20128;-53
2023/03/31 06:18:47;;;;;;;1.20;0.45;;;;;;;13.21;98.59;99123.38;4894341;29;20086;-54
2023/03/31 06:21:35;;;;;;;1.38;0.60;;;;;;;13.26;98.46;99126.38;4891820;29;20105;-55
2023/03/31 06:24:00;;;;;;;1.38;0.85;;;;;;;13.44;97.40;99135.00;4851890;29;20056;-47
2023/03/31 06:26:26;;;;;;;0.63;0.60;;;;;;;13.50;97.33;99133.34;4853050;29;20045;-47
2023/03/31 06:28:52;;;;;;;4.45;1.08;;;;;;;13.66;96.65;99138.13;4853809;29;20045;-48
2023/03/31 06:31:20;;;;;;;1.33;0.57;;;;;;;13.69;96.37;99141.91;4874762;29;20115;-51
2023/03/31 06:33:46;;;;;;;1.52;0.60;;;;;;;13.44;97.34;99126.88;4889836;29;20432;-49
2023/03/31 06:36:14;;;;;;;0.77;0.68;;;;;;;13.54;97.39;99125.94;4887301;29;20067;-47
2023/03/31 06:38:40;;;;;;;2.85;1.15;;;;;;;13.65;96.29;99130.38;4889640;29;20095;-48
2023/03/31 06:41:07;;;;;;;1.67;0.90;;;;;;;13.62;97.09;99125.81;4889910;29;20707;-48
2023/03/31 06:43:33;;;;;;;5.55;0.47;;;;;;;13.66;96.96;99127.28;4887095;29;20127;-49
2023/03/31 06:45:59;;;;;;;1.20;0.70;;;;;;;13.63;97.58;99120.00;4889543;29;20152;-47
2023/03/31 06:48:25;;;;;;;3.97;0.63;;;;;;;13.70;97.00;99122.59;4891379;29;20036;-52
2023/03/31 06:50:53;;;;;;;1.13;0.70;;;;;;;13.82;96.52;99124.66;4888017;29;20437;-54
2023/03/31 06:53:20;;;;;;;2.15;1.67;;;;;;;13.82;96.03;99113.84;4884741;29;20048;-50
2023/03/31 06:55:46;;;;;;;0.32;0.32;;;;;;;13.77;96.20;99121.69;4875284;29;20908;-51
2023/03/31 06:58:12;;;;;;;0.47;0.35;;;;;;;13.88;96.24;99116.88;4885181;29;20040;-46
2023/03/31 07:00:38;;;;;;;1.38;0.60;;;;;;;14.05;94.10;99115.78;4916112;28;20118;-53
2023/03/31 07:03:04;;;;;;;1.25;0.50;;;;;;;13.97;94.19;99115.16;4953892;28;20815;-50
2023/03/31 07:05:30;;;;;;;1.70;1.08;;;;;;;13.96;94.81;99119.00;4955418;28;20034;-55
2023/03/31 07:07:58;;;;;;;2.75;0.93;;;;;;;13.99;94.39;99104.66;4961505;28;20019;-52
2023/03/31 07:10:26;;;;;;;1.35;0.73;;;;;;;13.91;95.07;99105.19;4954752;28;20031;-47
2023/03/31 07:12:51;;;;;;;0.70;0.63;;;;;;;13.89;94.12;99105.63;4961259;28;20031;-51
2023/03/31 07:15:17;;;;;;;1.08;0.55;;;;;;;13.96;94.26;99102.78;4958023;28;20043;-51
2023/03/31 07:17:43;;;;;;;1.17;0.57;;;;;;;14.02;93.93;99105.75;4959843;28;20066;-53
2023/03/31 07:20:16;;;;;;;0.65;0.43;;;;;;;14.10;93.95;99105.22;4958789;28;20040;-48
2023/03/31 07:22:42;;;;;;;0.65;0.43;;;;;;;14.12;93.47;99107.50;4960131;28;20089;-47
2023/03/31 07:25:09;;;;;;;0.80;0.45;;;;;;;14.14;93.61;99105.91;4964436;28;20042;-53
2023/03/31 07:27:35;;;;;;;0.57;0.30;;;;;;;14.18;93.56;99097.72;4956203;28;20041;-47
2023/03/31 07:30:03;;;;;;;2.17;0.95;;;;;;;14.01;93.59;99093.41;4949960;28;20050;-50
2023/03/31 07:32:28;;;;;;;0.45;0.32;;;;;;;14.07;93.19;99100.63;4954556;28;20041;-53
2023/03/31 07:34:53;;;;;;;1.20;0.30;;;;;;;14.11;93.43;99085.06;4960281;28;20043;-53
2023/03/31 07:37:19;;;;;;;2.22;0.77;;;;;;;14.00;92.78;99087.22;4962054;28;20525;-52
2023/03/31 07:39:44;;;;;;;0.35;0.30;;;;;;;14.19;92.32;99081.06;4967065;28;20042;-54
2023/03/31 07:42:10;;;;;;;0.98;0.50;;;;;;;14.26;91.71;99089.06;4961167;28;20613;-53
2023/03/31 07:44:36;;;;;;;2.72;0.73;;;;;;;14.29;89.92;99074.69;5023104;22;20046;-66
2023/03/31 07:47:03;;;;;;;3.33;0.75;;;;;;;13.96;91.68;99073.00;5026365;28;20049;-65
2023/03/31 07:49:30;;;;;;;4.13;1.15;;;;;;;14.12;91.47;99075.00;5028502;28;20044;-65
2023/03/31 07:51:55;;;;;;;1.65;0.50;;;;;;;13.86;92.32;99071.25;5027544;28;20030;-65
2023/03/31 07:54:20;;;;;;;0.50;0.22;;;;;;;13.86;93.27;99075.94;5013016;28;20103;-64
2023/03/31 07:56:46;;;;;;;0.80;0.63;;;;;;;14.08;92.00;99072.38;5011940;28;20040;-64
2023/03/31 07:59:11;;;;;;;1.45;0.47;;;;;;;13.99;92.02;99069.47;5013043;28;20030;-64
2023/03/31 08:01:37;;;;;;;1.02;0.60;;;;;;;13.97;92.75;99062.94;5013392;28;20025;-65
2023/03/31 08:04:02;;;;;;;0.25;0.25;;;;;;;14.13;92.14;99069.19;5027312;28;20536;-65
2023/03/31 08:06:28;;;;;;;2.70;0.60;;;;;;;14.15;92.18;99061.41;5016353;28;20030;-65
2023/03/31 08:08:54;;;;;;;0.50;0.50;;;;;;;14.12;92.55;99047.94;5012603;28;20030;-65
2023/03/31 08:11:20;;;;;;;0.80;0.50;;;;;;;13.91;93.98;99056.47;5024683;28;20549;-66
2023/03/31 08:13:46;;;;;;;0.75;0.40;;;;;;;14.09;94.24;99044.13;5018753;28;20365;-65
2023/03/31 08:16:11;;;;;;;0.22;0.22;;;;;;;14.09;93.90;99041.41;5022775;28;20128;-65
2023/03/31 08:18:37;;;;;;;0.10;0.10;;;;;;;14.13;93.56;99044.06;5014907;28;20048;-66
2023/03/31 08:21:02;;;;;;;4.00;0.35;;;;;;;14.09;94.71;99051.50;5015358;28;20039;-65
2023/03/31 08:23:28;;;;;;;0.22;0.22;;;;;;;14.27;93.51;99044.56;5018069;28;20107;-66
2023/03/31 08:25:53;;;;;;;0.70;0.22;;;;;;;14.08;94.23;99034.47;5021966;28;20112;-66
2023/03/31 08:28:19;;;;;;;0.20;0.20;;;;;;;14.23;94.10;99032.22;5017924;28;20025;-66
2023/03/31 08:30:45;;;;;;;1.13;0.68;;;;;;;13.92;95.42;99037.13;5013131;28;20034;-65
2023/03/31 08:33:16;;;;;;;0.32;0.30;;;;;;;14.05;94.66;99029.88;5012572;28;20042;-66
2023/03/31 08:35:42;;;;;;;0.50;0.30;;;;;;;14.01;95.48;99029.22;5020812;28;20034;-66
2023/03/31 08:38:07;;;;;;;0.25;0.20;;;;;;;14.09;95.51;99027.88;5017905;28;20108;-65
2023/03/31 08:40:33;;;;;;;0.30;0.30;;;;;;;14.10;95.85;99024.00;5023918;28;20424;-66
2023/03/31 08:43:05;;;;;;;0.13;0.13;;;;;;;14.31;95.26;99026.28;5017667;28;20026;-66
2023/03/31 08:45:38;;;;;;;2.25;0.28;;;;;;;14.12;95.93;99024.34;5020736;28;20049;-66
2023/03/31 08:48:33;;;;;;;0.30;0.30;;;;;;;14.12;95.63;99023.56;5024077;28;20088;-65
2023/03/31 08:51:06;;;;;;;0.10;0.10;;;;;;;14.16;95.02;99014.22;5016097;28;20147;-66
2023/03/31 08:53:38;;;;;;;0.20;0.20;;;;;;;13.87;96.41;99020.59;5019710;28;20406;-66
2023/03/31 08:56:11;;;;;;;0.28;0.17;;;;;;;13.84;97.49;99008.66;5013772;28;20045;-66
2023/03/31 08:58:42;;;;;;;0.15;0.10;;;;;;;14.01;96.60;99004.88;5018664;28;20072;-66
2023/03/31 09:01:07;;;;;;;0.13;0.13;;;;;;;13.95;96.54;99005.75;5012900;28;20038;-66
2023/03/31 09:03:59;;;;;;;0.38;0.32;;;;;;;14.05;95.86;98999.38;5017638;28;20037;-66
2023/03/31 09:06:38;;;;;;;0.25;0.25;;;;;;;13.93;96.80;99008.13;5012721;28;20551;-66
2023/03/31 09:09:09;;;;;;;0.60;0.50;;;;;;;13.85;96.47;98999.38;5028103;28;20244;-66
2023/03/31 09:11:47;;;;;;;0.10;0.10;;;;;;;13.82;96.93;98997.50;5022909;28;20030;-65
2023/03/31 09:14:27;;;;;;;0.25;0.15;;;;;;;13.73;98.14;98994.59;5018599;28;20037;-66
2023/03/31 09:17:11;;;;;;;0.47;0.20;;;;;;;13.87;97.81;98990.84;5023632;28;20041;-66
2023/03/31 09:19:46;;;;;;;1.55;0.28;;;;;;;13.48;98.61;98986.19;5011947;28;20107;-67
2023/03/31 09:22:19;;;;;;;0.60;0.22;;;;;;;13.71;99.06;98982.66;5040545;28;20397;-66
2023/03/31 09:24:58;;;;;;;0.88;0.82;;;;;;;13.66;98.65;98983.16;5012964;28;20030;-66
2023/03/31 09:27:27;;;;;;;0.65;0.60;;;;;;;13.87;97.98;98982.72;5011520;28;20030;-66
2023/03/31 09:30:19;;;;;;;1.05;0.22;;;;;;;13.95;97.44;98968.63;5012446;28;20029;-65
2023/03/31 09:32:48;;;;;;;0.95;0.30;;;;;;;13.76;97.94;98964.00;5014902;28;20029;-67
2023/03/31 09:35:20;;;;;;;0.10;0.10;;;;;;;13.83;98.24;98963.09;5013576;28;20452;-66
2023/03/31 09:37:49;;;;;;;0.52;0.28;;;;;;;13.88;98.60;98963.34;5019285;28;20029;-66
2023/03/31 09:40:20;;;;;;;0.70;0.30;;;;;;;13.75;99.00;98956.28;5017969;28;20073;-66
2023/03/31 09:42:52;;;;;;;0.30;0.30;;;;;;;13.87;98.80;98953.72;5013028;28;20520;-66
2023/03/31 09:45:19;;;;;;;0.45;0.35;;;;;;;14.04;97.51;98952.59;5016176;28;20038;-66
2023/03/31 09:47:57;;;;;;;1.88;0.55;;;;;;;13.78;98.94;98947.34;5014619;28;20030;-66
2023/03/31 09:50:23;;;;;;;0.63;0.25;;;;;;;13.76;99.74;98950.47;5015740;28;20030;-65
2023/03/31 09:52:51;;;;;;;0.20;0.20;;;;;;;13.69;100.00;98947.91;5018104;28;20038;-66
2023/03/31 09:55:20;;;;;;;0.20;0.20;;;;;;;13.73;100.00;98939.72;5017669;28;20045;-67
2023/03/31 09:57:46;;;;;;;0.50;0.50;;;;;;;13.62;100.00;98933.75;5017053;28;20044;-65
2023/03/31 10:00:17;;;;;;;0.30;0.30;;;;;;;13.75;100.00;98940.06;5018188;28;20041;-66
2023/03/31 10:02:48;;;;;;;0.40;0.20;;;;;;;13.93;100.00;98930.41;5018036;28;20444;-66
2023/03/31 10:05:26;;;;;;;0.25;0.25;;;;;;;14.04;99.35;98927.44;5012830;28;20061;-67
2023/03/31 10:08:15;;;;;;;0.73;0.30;;;;;;;13.85;100.00;98933.66;5016351;28;20041;-66
2023/03/31 10:10:45;;;;;;;0.47;0.30;;;;;;;13.88;100.00;98925.47;5002500;28;20057;-64
2023/03/31 10:13:16;;;;;;;0.65;0.30;;;;;;;13.91;100.00;98929.28;5014820;28;20126;-65
2023/03/31 10:16:02;;;;;;;0.90;0.45;;;;;;;13.98;99.92;98921.78;5013795;28;20056;-66
2023/03/31 10:18:36;;;;;;;0.22;0.20;;;;;;;14.01;100.00;98923.66;4940255;29;20059;-66
2023/03/31 10:21:05;;;;;;;1.15;0.60;;;;;;;13.93;100.00;98913.41;4933202;29;20059;-67
2023/03/31 10:23:33;;;;;;;0.43;0.40;;;;;;;13.65;100.00;98914.75;4931111;29;20138;-64
2023/03/31 10:26:00;;;;;;;0.40;0.25;;;;;;;13.92;99.84;98912.63;4939203;29;20050;-67
2023/03/31 10:28:29;;;;;;;1.83;0.55;;;;;;;13.96;99.79;98912.53;4937816;29;20440;-67
2023/03/31 10:31:02;;;;;;;1.10;0.75;;;;;;;14.17;99.38;98918.25;4942527;29;20042;-67
2023/03/31 10:33:33;;;;;;;1.55;0.35;;;;;;;13.87;100.00;98904.25;4942830;29;20051;-66
2023/03/31 10:36:07;;;;;;;;;;;;;;;13.81;100.00;98901.28;4924036;29;20095;-66
2023/03/31 10:38:58;;;;;;;0.40;0.40;;;;;;;14.20;100.00;98903.88;4942737;28;20493;-65
2023/03/31 10:41:27;;;;;;;0.63;0.40;;;;;;;14.54;98.62;98900.03;4893607;29;20053;-67
2023/03/31 10:43:54;;;;;;;0.50;0.20;;;;;;;14.48;98.80;98893.59;4890035;29;20414;-66
2023/03/31 10:46:20;;;;;;;0.28;0.20;;;;;;;14.56;99.22;98886.81;4889003;29;20060;-65
2023/03/31 10:48:46;;;;;;;2.45;0.63;;;;;;;14.61;97.01;98891.72;4881556;29;20049;-65
2023/03/31 10:51:16;;;;;;;1.33;0.40;;;;;;;14.48;98.55;98891.63;4877460;29;20055;-67
2023/03/31 10:53:46;;;;;;;0.35;0.30;;;;;;;14.36;97.71;98890.38;4883240;29;20064;-66
2023/03/31 10:56:21;;;;;;;0.30;0.20;;;;;;;14.14;100.00;98881.22;4932168;28;20080;-66
2023/03/31 10:59:11;;;;;;;0.20;0.20;;;;;;;13.97;100.00;98879.66;4961509;28;20046;-66
2023/03/31 11:01:59;;;;;;;0.57;0.57;;;;;;;13.95;99.89;98876.63;4964469;28;21022;-65
2023/03/31 11:04:42;;;;;;;0.98;0.60;;;;;;;14.05;99.89;98878.31;4957917;28;20082;-64
2023/03/31 11:07:31;;;;;;;0.10;0.10;;;;;;;13.90;100.00;98876.34;4963169;28;20639;-64
2023/03/31 11:10:09;;;;;;;0.20;0.10;;;;;;;14.12;100.00;98871.97;4961290;28;20026;-66
2023/03/31 11:12:59;;;;;;;1.58;0.32;;;;;;;14.24;99.27;98872.06;4964241;28;20482;-65
2023/03/31 11:15:33;;;;;;;0.20;0.20;;;;;;;14.40;99.27;98861.25;4961720;28;20101;-66
2023/03/31 11:18:28;;;;;;;0.20;0.20;;;;;;;14.07;98.25;98858.94;4966263;28;20461;-67
2023/03/31 11:21:29;;;;;;;0.20;0.20;;;;;;;13.98;100.00;98858.75;5018991;28;20472;-66
2023/03/31 11:24:26;;;;;;;0.40;0.20;;;;;;;14.19;99.04;98867.16;5009685;28;20033;-67
2023/03/31 11:27:22;;;;;;;0.35;0.20;;;;;;;13.92;99.65;98863.91;5014566;28;20168;-65
2023/03/31 11:30:13;;;;;;;0.98;0.47;;;;;;;13.64;100.00;98853.72;5010621;28;20122;-67
2023/03/31 11:33:00;;;;;;;0.10;0.10;;;;;;;13.72;100.00;98855.09;5012700;28;20052;-66
2023/03/31 11:35:53;;;;;;;1.02;0.30;;;;;;;13.87;99.85;98853.59;5003712;28;20048;-65
2023/03/31 11:38:54;;;;;;;0.15;0.15;;;;;;;13.85;100.00;98849.78;5016634;28;20367;-66
2023/03/31 11:41:31;;;;;;;0.98;0.20;;;;;;;13.85;100.00;98838.97;5011609;28;20037;-65
2023/03/31 11:44:03;;;;;;;0.28;0.17;;;;;;;13.81;100.00;98841.75;5010486;28;20397;-68
2023/03/31 11:46:52;;;;;;;0.20;0.20;;;;;;;13.94;100.00;98834.47;5010633;28;20042;-66
2023/03/31 11:49:47;;;;;;;0.47;0.30;;;;;;;13.98;100.00;98835.16;5020164;28;20118;-65
2023/03/31 11:52:28;;;;;;;0.38;0.20;;;;;;;14.15;100.00;98828.56;5011395;28;20991;-65
2023/03/31 11:55:16;;;;;;;0.10;0.10;;;;;;;14.22;99.11;98828.41;4991272;28;20480;-65